Aviation Digital Data Service (ADDS)

Output produced by METARs form (2354 UTC 04 August 2015)
found at http://aviationweather.gov/adds/metars/
 
METAR text: KSPB 042253Z AUTO 25006KT 10SM CLR 28/08 A2996 RMK AO2 SLP143 T02780083
Conditions at: KSPB (SCAPPOOSE , OR, US) observed 2253 UTC 04 August 2015
Temperature: 27.8°C (82°F)
Dewpoint: 8.3°C (47°F) [RH = 29%]
Pressure (altimeter): 29.96 inches Hg (1014.6 mb)
[Sea-level pressure: 1014.3 mb]
Winds: from the WSW (250 degrees) at 7 MPH (6 knots; 3.1 m/s)
Visibility: 10 or more miles (16+ km)
Ceiling: at least 12,000 feet AGL
Clouds: sky clear below 12,000 feet AGL
Weather: automated observation with no human augmentation;
there may or may not be significant weather present at this time